Portada
METAR-TAF:

METAR-TAF

Aeroports :

Muş, Turquia

latitud: 38-45N, longitud: 041-40E, altitud: 1266 m

Observació

L'informe es va fer fa 11 hores i 26 minuts, a les 12:50 UTC
Vent 1 kt amb direcció variable
Temperatura 2°C
Humitat 55%
Pressió 1025 hPa
Visibilitat: 9000 m

METAR: LTCK 271250Z VRB01KT 9000 NSC 02/M06 Q1025

Hora: 03:16 (00:16 UTC)

Pronòstic

L'informe es va fer fa 10 hores i 36 minuts, a les 13:40 UTC
Pronòstic vàlid del 27 a les 15 UTC al 27 a les 24 UTC
Vent 8 kt del Oest/Nord-Oest
Visibilitat 10 km o més
sense núvols per sota de 1500 mi sense presència de cumulonimbus.

TAF: LTCK 271340Z 2715/2724 30008KT CAVOK

Observacions i pronòstics meteorològics de més de 4000 aeroports (METAR i TAF).

Les estacions disponibles són els punts grocs i vermells al mapa.

Posi el ratolí al punt desitjat per veure el nom de l'estació.

Feu clic per veure les observacions i els pronòstics meteorològics.

Per canviar el mapa: feu clic els botons verds amb una creu de color negre per apropar; al botó verd amb un guió per allunyar la imatge; o en les fletxes verdes per a mapes adjacents.


METAR-TAF: